createdAt,value
2022-12-05T00:01:31.871Z,56.33
2022-12-05T00:04:02.187Z,40.90
2022-12-05T00:06:30.916Z,29.80
2022-12-05T00:08:58.356Z,36.53
2022-12-05T00:11:32.108Z,43.55
2022-12-05T00:14:00.850Z,44.60
2022-12-05T00:16:30.029Z,57.22
2022-12-05T00:19:00.073Z,50.97
2022-12-05T00:21:29.106Z,34.38
2022-12-05T00:23:57.898Z,45.63
2022-12-05T00:26:25.951Z,35.50
2022-12-05T00:28:53.563Z,33.03
2022-12-05T00:31:23.108Z,45.80
2022-12-05T00:33:51.356Z,29.83
2022-12-05T00:36:24.819Z,39.75
2022-12-05T00:38:53.328Z,45.47
2022-12-05T00:41:24.109Z,19.70
2022-12-05T00:43:52.299Z,40.00
2022-12-05T00:46:23.676Z,54.50
2022-12-05T00:48:53.061Z,43.20
2022-12-05T00:51:30.365Z,41.42
2022-12-05T00:54:03.719Z,30.52
2022-12-05T00:56:32.397Z,37.25
2022-12-05T00:59:01.079Z,50.17
2022-12-05T01:01:34.233Z,26.77
2022-12-05T01:04:04.940Z,37.03
2022-12-05T01:06:32.761Z,42.17
2022-12-05T01:09:00.190Z,35.50
2022-12-05T01:11:28.899Z,64.05
2022-12-05T01:13:56.464Z,44.35
2022-12-05T01:16:26.650Z,38.95
2022-12-05T01:18:54.522Z,38.50
2022-12-05T01:21:21.929Z,37.90
2022-12-05T01:23:49.485Z,34.95
2022-12-05T01:26:19.252Z,34.00
2022-12-05T01:28:47.027Z,63.00
2022-12-05T01:31:32.063Z,36.75
2022-12-05T01:34:01.204Z,30.60
2022-12-05T01:36:29.668Z,34.88
2022-12-05T01:38:57.101Z,31.13
2022-12-05T01:41:28.092Z,56.20
2022-12-05T01:44:02.524Z,35.63
2022-12-05T01:46:36.051Z,31.35
2022-12-05T01:49:09.480Z,23.88
2022-12-05T01:51:40.235Z,26.20
2022-12-05T01:54:07.923Z,27.30
2022-12-05T01:56:36.556Z,23.55
2022-12-05T01:59:07.668Z,48.63
2022-12-05T02:01:35.897Z,33.35
2022-12-05T02:04:03.768Z,30.23
2022-12-05T02:06:33.074Z,36.20
2022-12-05T02:09:00.045Z,35.05
2022-12-05T02:11:30.159Z,33.05
2022-12-05T02:14:05.087Z,37.25
2022-12-05T02:16:49.082Z,31.58
2022-12-05T02:19:53.871Z,31.17
2022-12-05T02:22:42.714Z,38.72
2022-12-05T02:25:12.714Z,23.63
2022-12-05T02:28:01.980Z,27.33
2022-12-05T02:30:35.527Z,33.22
2022-12-05T02:33:23.329Z,34.95
2022-12-05T02:36:15.932Z,28.35
2022-12-05T02:38:49.024Z,26.20
2022-12-05T02:41:28.264Z,34.15
2022-12-05T02:44:27.579Z,36.25
2022-12-05T02:46:56.003Z,34.63
2022-12-05T02:49:30.241Z,29.23
2022-12-05T02:51:59.838Z,30.42
2022-12-05T02:54:32.009Z,31.48
2022-12-05T02:57:00.336Z,23.10
2022-12-05T02:59:28.007Z,15.90
2022-12-05T03:01:55.243Z,38.13
2022-12-05T03:04:24.610Z,30.63
2022-12-05T03:07:13.024Z,35.22
2022-12-05T03:09:54.987Z,32.60
2022-12-05T03:12:28.535Z,28.23
2022-12-05T03:15:08.404Z,24.83
2022-12-05T03:17:46.294Z,37.33
2022-12-05T03:20:28.242Z,31.23
2022-12-05T03:22:59.882Z,38.60
2022-12-05T03:25:36.056Z,32.85
2022-12-05T03:28:09.094Z,36.95
2022-12-05T03:30:39.530Z,43.65
2022-12-05T03:33:18.664Z,34.13
2022-12-05T03:36:03.325Z,24.63
2022-12-05T03:38:56.891Z,38.25
2022-12-05T03:41:44.495Z,33.88
2022-12-05T03:44:39.471Z,32.28
2022-12-05T03:47:14.360Z,35.70
2022-12-05T03:49:48.276Z,46.50
2022-12-05T03:52:27.092Z,43.90
2022-12-05T03:54:57.626Z,48.70
2022-12-05T03:57:31.465Z,27.10
2022-12-05T04:00:07.669Z,31.85
2022-12-05T04:03:14.497Z,44.67
2022-12-05T04:05:52.547Z,45.28
2022-12-05T04:08:22.200Z,35.97
2022-12-05T04:10:53.517Z,26.65
2022-12-05T04:13:28.986Z,29.80
2022-12-05T04:16:45.197Z,46.40
2022-12-05T04:19:54.321Z,32.22
2022-12-05T04:22:22.446Z,36.13
2022-12-05T04:25:09.840Z,38.15
2022-12-05T04:28:13.618Z,33.33
2022-12-05T04:30:50.730Z,38.58
2022-12-05T04:33:33.605Z,26.65
2022-12-05T04:36:34.464Z,42.75
2022-12-05T04:39:05.524Z,48.58
2022-12-05T04:41:41.135Z,27.58
2022-12-05T04:44:11.295Z,38.33
2022-12-05T04:46:42.056Z,53.53
2022-12-05T04:49:12.443Z,45.90
2022-12-05T04:51:43.146Z,40.63
2022-12-05T04:54:39.328Z,32.97
2022-12-05T04:57:26.835Z,32.47
2022-12-05T04:59:54.901Z,32.40
2022-12-05T05:02:32.383Z,37.35
2022-12-05T05:05:02.329Z,39.42
2022-12-05T05:07:29.761Z,31.52
2022-12-05T05:09:57.689Z,29.75
2022-12-05T05:12:25.166Z,32.45
2022-12-05T05:14:52.104Z,32.55
2022-12-05T05:17:19.408Z,30.90
2022-12-05T05:19:46.387Z,29.83
2022-12-05T05:22:13.667Z,29.10
2022-12-05T05:24:40.662Z,41.08
2022-12-05T05:27:07.985Z,34.05
2022-12-05T05:29:35.064Z,29.05
2022-12-05T05:32:02.309Z,30.75
2022-12-05T05:34:29.252Z,36.47
2022-12-05T05:36:56.513Z,32.97
2022-12-05T05:39:23.477Z,33.95
2022-12-05T05:41:50.943Z,36.60
2022-12-05T05:44:17.884Z,53.97
2022-12-05T05:46:45.401Z,61.13
2022-12-05T05:49:12.658Z,67.57
2022-12-05T05:51:40.216Z,38.72
2022-12-05T05:54:07.187Z,63.90
2022-12-05T05:56:34.437Z,28.33
2022-12-05T05:59:03.849Z,37.88
2022-12-05T06:01:31.411Z,40.15
2022-12-05T06:04:01.626Z,34.38
2022-12-05T06:06:29.133Z,35.20
2022-12-05T06:08:56.934Z,31.55
2022-12-05T06:11:27.217Z,48.70
2022-12-05T06:14:02.051Z,39.95
2022-12-05T06:16:31.305Z,36.03
2022-12-05T06:18:59.069Z,50.00
2022-12-05T06:21:26.700Z,31.25
2022-12-05T06:23:54.703Z,26.95
2022-12-05T06:26:23.036Z,40.85
2022-12-05T06:28:50.458Z,35.63
2022-12-05T06:31:23.406Z,36.60
2022-12-05T06:33:50.643Z,56.88
2022-12-05T06:36:20.980Z,52.90
2022-12-05T06:38:48.281Z,43.78
2022-12-05T06:41:18.102Z,42.92
2022-12-05T06:43:45.549Z,26.95
2022-12-05T06:46:14.419Z,40.35
2022-12-05T06:48:41.504Z,42.55
2022-12-05T06:51:11.298Z,42.55
2022-12-05T06:53:38.999Z,40.78
2022-12-05T06:56:08.305Z,24.27
2022-12-05T06:58:35.338Z,38.83
2022-12-05T07:01:21.322Z,42.90
2022-12-05T07:03:51.494Z,65.85
2022-12-05T07:06:18.932Z,35.30
2022-12-05T07:08:45.944Z,64.28
2022-12-05T07:11:13.302Z,54.17
2022-12-05T07:13:40.302Z,44.75
2022-12-05T07:16:08.496Z,33.60
2022-12-05T07:18:36.737Z,45.28
2022-12-05T07:21:12.475Z,46.42
2022-12-05T07:23:41.848Z,39.53
2022-12-05T07:26:11.790Z,37.00
2022-12-05T07:28:38.866Z,41.65
2022-12-05T07:31:09.177Z,38.10
2022-12-05T07:33:38.986Z,60.90
2022-12-05T07:36:09.362Z,55.85
2022-12-05T07:38:36.604Z,45.72
2022-12-05T07:41:31.465Z,38.95
2022-12-05T07:44:00.012Z,41.90
2022-12-05T07:46:29.029Z,56.30
2022-12-05T07:48:56.225Z,34.40
2022-12-05T07:51:24.103Z,39.15
2022-12-05T07:53:51.632Z,38.42
2022-12-05T07:56:19.468Z,55.33
2022-12-05T07:58:50.017Z,36.67
2022-12-05T08:01:22.832Z,35.00
2022-12-05T08:03:52.029Z,33.20
2022-12-05T08:06:30.750Z,30.92
2022-12-05T08:09:00.937Z,39.40
2022-12-05T08:11:31.056Z,31.45
2022-12-05T08:13:58.957Z,47.95
2022-12-05T08:16:28.721Z,50.28
2022-12-05T08:18:57.366Z,31.83
2022-12-05T08:21:27.684Z,37.15
2022-12-05T08:23:55.092Z,43.75
2022-12-05T08:26:25.681Z,31.40
2022-12-05T08:28:55.070Z,51.47
2022-12-05T08:31:24.492Z,34.75
2022-12-05T08:33:57.091Z,50.22
2022-12-05T08:36:28.576Z,24.80
2022-12-05T08:39:04.477Z,45.40
2022-12-05T08:41:32.374Z,69.47
2022-12-05T08:44:03.293Z,42.92
2022-12-05T08:46:32.436Z,37.10
2022-12-05T08:48:59.981Z,44.47
2022-12-05T08:51:27.235Z,39.13
2022-12-05T08:53:56.394Z,31.38
2022-12-05T08:56:27.180Z,45.40
2022-12-05T08:59:02.952Z,35.75
2022-12-05T09:01:33.715Z,29.67
2022-12-05T09:04:02.470Z,57.42
2022-12-05T09:06:31.546Z,50.72
2022-12-05T09:09:01.395Z,34.97
2022-12-05T09:11:33.523Z,29.27
2022-12-05T09:14:02.256Z,39.25
2022-12-05T09:16:36.850Z,51.08
2022-12-05T09:19:24.162Z,55.83
2022-12-05T09:21:51.247Z,38.27
2022-12-05T09:24:18.700Z,26.80
2022-12-05T09:26:46.573Z,39.42
2022-12-05T09:29:17.194Z,46.35
2022-12-05T09:31:46.914Z,55.95
2022-12-05T09:34:15.619Z,35.90
2022-12-05T09:36:43.652Z,33.58
2022-12-05T09:39:11.752Z,33.72
2022-12-05T09:42:09.942Z,43.55
2022-12-05T09:44:54.200Z,26.35
2022-12-05T09:47:39.209Z,35.85
2022-12-05T09:50:26.603Z,30.02
2022-12-05T09:53:32.486Z,42.15
2022-12-05T09:56:06.344Z,26.50
2022-12-05T09:58:40.203Z,22.23
2022-12-05T10:01:28.634Z,20.67
2022-12-05T10:04:05.410Z,61.85
2022-12-05T10:06:45.598Z,58.45
2022-12-05T10:09:24.919Z,77.43
2022-12-05T10:12:15.435Z,42.40
2022-12-05T10:14:45.558Z,42.95
2022-12-05T10:17:28.388Z,34.03
2022-12-05T10:20:02.081Z,33.00
2022-12-05T10:22:35.032Z,41.47
2022-12-05T10:25:09.043Z,42.72
2022-12-05T10:27:40.807Z,63.65
2022-12-05T10:30:18.240Z,38.85
2022-12-05T10:32:57.849Z,36.78
2022-12-05T10:35:33.791Z,41.58
2022-12-05T10:38:06.821Z,35.30
2022-12-05T10:40:38.266Z,43.28
2022-12-05T10:43:08.299Z,43.47
2022-12-05T10:45:42.596Z,30.17
2022-12-05T10:48:13.875Z,38.35
2022-12-05T10:50:43.498Z,41.22
2022-12-05T10:53:19.557Z,45.85
2022-12-05T10:56:21.429Z,36.60
2022-12-05T10:58:35.650Z,31.50
2022-12-05T11:01:09.865Z,37.42
2022-12-05T11:03:42.473Z,39.65
2022-12-05T11:06:27.679Z,37.15
2022-12-05T11:11:34.076Z,40.50
2022-12-05T11:14:08.727Z,37.47
2022-12-05T11:16:39.618Z,32.20
2022-12-05T11:19:22.354Z,45.70
2022-12-05T11:21:52.334Z,58.95
2022-12-05T11:24:34.566Z,51.10
2022-12-05T11:27:21.153Z,49.20
2022-12-05T11:29:57.055Z,53.47
2022-12-05T11:32:27.097Z,50.17
2022-12-05T11:35:03.229Z,41.75
2022-12-05T11:37:40.414Z,39.05
2022-12-05T11:40:17.333Z,58.78
2022-12-05T11:42:51.857Z,38.95
2022-12-05T11:45:40.848Z,39.17
2022-12-05T11:48:19.278Z,49.13
2022-12-05T11:51:01.026Z,37.92
2022-12-05T11:53:58.941Z,48.03
2022-12-05T11:56:57.029Z,46.75
2022-12-05T11:59:52.039Z,59.15
2022-12-05T12:02:45.172Z,40.10
2022-12-05T12:05:21.381Z,33.40
2022-12-05T12:08:24.648Z,42.92
2022-12-05T12:11:13.355Z,27.67
2022-12-05T12:13:40.678Z,32.40
2022-12-05T12:16:17.477Z,45.53
2022-12-05T12:19:02.785Z,45.40
2022-12-05T12:22:00.562Z,39.35
2022-12-05T12:24:49.152Z,121.88
2022-12-05T12:27:35.884Z,42.08
2022-12-05T12:30:22.617Z,47.50
2022-12-05T12:33:24.004Z,44.92
2022-12-05T12:36:14.657Z,57.55
2022-12-05T12:38:53.270Z,41.35
2022-12-05T12:42:01.752Z,59.58
2022-12-05T12:45:10.383Z,44.00
2022-12-05T12:48:04.095Z,59.53
2022-12-05T12:50:34.214Z,38.88
2022-12-05T12:53:48.192Z,45.00
2022-12-05T12:56:59.370Z,39.78
2022-12-05T12:59:47.758Z,35.53
2022-12-05T13:02:45.234Z,52.92
2022-12-05T13:05:18.875Z,59.30
2022-12-05T13:07:52.018Z,55.03
2022-12-05T13:10:39.649Z,50.05
2022-12-05T13:13:11.038Z,47.28
2022-12-05T13:16:02.452Z,47.42
2022-12-05T13:18:29.952Z,46.35
2022-12-05T13:21:00.661Z,54.80
2022-12-05T13:23:36.908Z,53.08
2022-12-05T13:26:09.922Z,86.95
2022-12-05T13:28:49.465Z,57.55
2022-12-05T13:31:19.532Z,52.50
2022-12-05T13:33:51.347Z,48.17
2022-12-05T13:39:44.441Z,55.20
2022-12-05T13:42:29.377Z,52.33
2022-12-05T13:44:58.705Z,65.17
2022-12-05T13:47:49.976Z,52.72
2022-12-05T13:51:02.766Z,48.58
2022-12-05T13:53:45.654Z,54.83
2022-12-05T13:56:15.382Z,44.42
2022-12-05T13:58:48.040Z,38.45
2022-12-05T14:01:27.232Z,69.22
2022-12-05T14:03:57.404Z,60.25
2022-12-05T14:06:39.679Z,60.45
2022-12-05T14:09:54.798Z,68.97
2022-12-05T14:12:24.687Z,78.32
2022-12-05T14:15:04.346Z,59.78
2022-12-05T14:17:42.802Z,61.80
2022-12-05T14:20:25.622Z,65.82
2022-12-05T14:23:27.808Z,53.88
2022-12-05T14:26:23.659Z,69.15
2022-12-05T14:29:13.192Z,61.70
2022-12-05T14:32:04.744Z,69.40
2022-12-05T14:34:40.476Z,52.35
2022-12-05T14:37:39.517Z,72.28
2022-12-05T14:40:40.603Z,63.67
2022-12-05T14:43:27.425Z,81.47
2022-12-05T14:45:59.768Z,86.72
2022-12-05T14:48:31.845Z,87.35
2022-12-05T14:51:01.557Z,73.13
2022-12-05T14:53:38.603Z,60.75
2022-12-05T14:56:16.357Z,55.03
2022-12-05T14:58:59.939Z,90.70
2022-12-05T15:01:52.357Z,93.45
2022-12-05T15:04:42.473Z,65.60
2022-12-05T15:07:19.084Z,79.47
2022-12-05T15:10:07.186Z,68.72
2022-12-05T15:12:50.973Z,64.25
2022-12-05T15:15:40.377Z,81.63
2022-12-05T15:18:31.245Z,68.25
2022-12-05T15:20:58.552Z,76.40
2022-12-05T15:23:41.533Z,99.25
2022-12-05T15:26:45.555Z,103.07
2022-12-05T15:29:26.942Z,85.78
2022-12-05T15:32:07.898Z,81.80
2022-12-05T15:34:44.212Z,120.45
2022-12-05T15:37:55.803Z,80.40
2022-12-05T15:40:26.007Z,48.05
2022-12-05T15:42:57.847Z,71.50
2022-12-05T15:45:27.618Z,67.78
2022-12-05T15:47:57.287Z,87.40
2022-12-05T15:50:33.129Z,59.42
2022-12-05T15:53:44.704Z,107.30
2022-12-05T15:56:26.187Z,109.32
2022-12-05T15:59:02.714Z,107.43
2022-12-05T16:01:30.206Z,140.00
2022-12-05T16:04:22.594Z,98.35
2022-12-05T16:06:55.749Z,111.63
2022-12-05T16:09:26.343Z,71.03
2022-12-05T16:11:59.478Z,81.60
2022-12-05T16:17:23.401Z,157.75
2022-12-05T16:19:51.690Z,107.22
2022-12-05T16:22:24.288Z,79.65
2022-12-05T16:25:01.930Z,80.63
2022-12-05T16:30:21.318Z,72.03
2022-12-05T16:32:58.091Z,94.05
2022-12-05T16:35:38.800Z,81.32
2022-12-05T16:38:27.007Z,112.50
2022-12-05T16:40:55.827Z,95.43
2022-12-05T16:43:22.835Z,89.32
2022-12-05T16:45:51.490Z,81.75
2022-12-05T16:48:26.815Z,84.88
2022-12-05T16:51:16.699Z,114.00
2022-12-05T16:53:48.580Z,80.45
2022-12-05T16:56:25.994Z,110.97
2022-12-05T16:58:53.735Z,77.38
2022-12-05T17:01:26.284Z,113.40
2022-12-05T17:03:55.428Z,72.53
2022-12-05T17:06:27.022Z,91.15
2022-12-05T17:08:55.164Z,109.30
2022-12-05T17:11:29.569Z,93.60
2022-12-05T17:13:57.514Z,85.38
2022-12-05T17:16:26.842Z,84.53
2022-12-05T17:18:54.527Z,107.18
2022-12-05T17:21:29.147Z,84.75
2022-12-05T17:23:56.427Z,80.60
2022-12-05T17:26:25.866Z,88.78
2022-12-05T17:28:53.328Z,90.63
2022-12-05T17:31:23.083Z,101.15
2022-12-05T17:33:52.148Z,97.15
2022-12-05T17:36:22.505Z,102.22
2022-12-05T17:38:50.659Z,97.78
2022-12-05T17:41:23.372Z,112.10
2022-12-05T17:43:54.148Z,106.90
2022-12-05T17:46:23.568Z,108.15
2022-12-05T17:48:52.243Z,130.70
2022-12-05T17:51:20.431Z,116.40
2022-12-05T17:53:48.291Z,148.02
2022-12-05T17:56:16.101Z,163.25
2022-12-05T17:58:43.512Z,110.50
2022-12-05T18:01:16.103Z,182.23
2022-12-05T18:03:43.584Z,128.75
2022-12-05T18:06:11.127Z,132.02
2022-12-05T18:08:44.190Z,106.60
2022-12-05T18:11:15.704Z,77.70
2022-12-05T18:13:43.048Z,91.03
2022-12-05T18:16:10.773Z,113.90
2022-12-05T18:18:38.113Z,179.68
2022-12-05T18:21:11.172Z,121.85
2022-12-05T18:23:40.375Z,113.80
2022-12-05T18:26:09.053Z,142.60
2022-12-05T18:28:38.456Z,128.25
2022-12-05T18:31:10.895Z,151.98
2022-12-05T18:33:39.730Z,102.20
2022-12-05T18:36:12.855Z,110.65
2022-12-05T18:38:40.845Z,252.82
2022-12-05T18:41:08.157Z,113.68
2022-12-05T18:43:36.145Z,138.82
2022-12-05T18:46:04.621Z,105.00
2022-12-05T18:48:44.830Z,105.40
2022-12-05T18:51:17.042Z,115.07
2022-12-05T18:53:52.086Z,174.48
2022-12-05T18:56:28.901Z,127.53
2022-12-05T18:59:02.569Z,115.75
2022-12-05T19:01:31.554Z,121.65
2022-12-05T19:04:00.476Z,284.60
2022-12-05T19:06:30.368Z,169.77
2022-12-05T19:09:00.703Z,142.00
2022-12-05T19:11:28.803Z,120.38
2022-12-05T19:14:05.262Z,142.15
2022-12-05T19:16:34.318Z,89.00
2022-12-05T19:19:03.184Z,109.75
2022-12-05T19:21:32.175Z,128.77
2022-12-05T19:24:01.284Z,121.63
2022-12-05T19:26:29.853Z,133.93
2022-12-05T19:28:57.700Z,112.15
2022-12-05T19:31:26.857Z,138.77
2022-12-05T19:33:56.217Z,133.82
2022-12-05T19:36:35.645Z,128.43
2022-12-05T19:39:11.951Z,121.85
2022-12-05T19:41:39.167Z,96.03
2022-12-05T19:44:09.440Z,124.80
2022-12-05T19:46:39.729Z,117.43
2022-12-05T19:49:09.848Z,147.15
2022-12-05T19:51:37.727Z,133.15
2022-12-05T19:54:07.020Z,161.75
2022-12-05T19:56:36.458Z,105.57
2022-12-05T19:59:05.172Z,138.25
2022-12-05T20:01:37.500Z,133.18
2022-12-05T20:04:10.698Z,126.15
2022-12-05T20:06:41.378Z,125.25
2022-12-05T20:09:10.479Z,120.25
2022-12-05T20:11:50.924Z,107.32
2022-12-05T20:14:24.921Z,155.43
2022-12-05T20:16:54.294Z,121.68
2022-12-05T20:19:23.290Z,165.50
2022-12-05T20:21:50.439Z,132.57
2022-12-05T20:24:17.748Z,173.00
2022-12-05T20:26:45.215Z,157.52
2022-12-05T20:29:12.903Z,143.63
2022-12-05T20:31:41.960Z,152.18
2022-12-05T20:34:13.449Z,147.02
2022-12-05T20:36:41.068Z,193.07
2022-12-05T20:39:13.341Z,146.48
2022-12-05T20:41:40.840Z,155.65
2022-12-05T20:44:08.625Z,166.05
2022-12-05T20:46:37.013Z,154.98
2022-12-05T20:49:04.339Z,136.43
2022-12-05T20:51:34.106Z,150.77
2022-12-05T20:54:03.769Z,133.43
2022-12-05T20:56:33.826Z,129.30
2022-12-05T20:59:06.058Z,143.18
2022-12-05T21:01:35.851Z,144.38
2022-12-05T21:04:05.836Z,144.43
2022-12-05T21:06:37.898Z,193.40
2022-12-05T21:09:14.831Z,167.18
2022-12-05T21:11:45.362Z,216.70
2022-12-05T21:14:12.790Z,237.80
2022-12-05T21:16:40.588Z,150.57
2022-12-05T21:19:08.782Z,111.53
2022-12-05T21:21:36.171Z,168.45
2022-12-05T21:24:05.284Z,174.73
2022-12-05T21:26:35.115Z,153.30
2022-12-05T21:29:03.795Z,155.43
2022-12-05T21:31:40.073Z,183.80
2022-12-05T21:34:20.281Z,208.35
2022-12-05T21:36:47.708Z,176.48
2022-12-05T21:39:15.633Z,216.70
2022-12-05T21:41:43.045Z,174.15
2022-12-05T21:44:11.988Z,174.05
2022-12-05T21:46:39.407Z,172.40
2022-12-05T21:49:09.141Z,173.45
2022-12-05T21:51:36.601Z,276.30
2022-12-05T21:54:05.336Z,140.90
2022-12-05T21:56:33.077Z,118.70
2022-12-05T21:59:00.209Z,147.70
2022-12-05T22:01:28.819Z,128.93
2022-12-05T22:04:00.935Z,133.68
2022-12-05T22:06:33.427Z,135.13
2022-12-05T22:09:01.232Z,130.50
2022-12-05T22:11:28.839Z,119.53
2022-12-05T22:13:56.130Z,129.75
2022-12-05T22:16:27.777Z,130.45
2022-12-05T22:18:57.931Z,119.57
2022-12-05T22:21:30.079Z,120.95
2022-12-05T22:23:57.196Z,133.80
2022-12-05T22:26:26.203Z,131.60
2022-12-05T22:28:56.980Z,134.32
2022-12-05T22:31:24.962Z,141.50
2022-12-05T22:33:52.572Z,132.55
2022-12-05T22:36:20.518Z,126.50
2022-12-05T22:38:48.818Z,157.07
2022-12-05T22:41:25.386Z,151.85
2022-12-05T22:43:59.371Z,146.73
2022-12-05T22:46:28.373Z,143.20
2022-12-05T22:48:56.510Z,139.20
2022-12-05T22:51:26.775Z,151.90
2022-12-05T22:53:56.501Z,142.07
2022-12-05T22:56:26.813Z,153.18
2022-12-05T22:58:56.847Z,138.68
2022-12-05T23:01:28.546Z,150.82
2022-12-05T23:04:02.034Z,141.65
2022-12-05T23:06:31.350Z,155.80
2022-12-05T23:08:59.761Z,144.50
2022-12-05T23:11:28.608Z,143.48
2022-12-05T23:14:01.356Z,124.32
2022-12-05T23:16:31.035Z,116.75
2022-12-05T23:19:01.120Z,121.03
2022-12-05T23:21:39.652Z,131.20
2022-12-05T23:24:09.874Z,126.80
2022-12-05T23:26:44.396Z,125.45
2022-12-05T23:29:12.680Z,120.13
2022-12-05T23:31:41.266Z,128.63
2022-12-05T23:34:08.581Z,120.55
2022-12-05T23:36:37.316Z,108.25
2022-12-05T23:39:05.725Z,108.18
2022-12-05T23:41:33.017Z,114.70
2022-12-05T23:44:00.101Z,109.28
2022-12-05T23:46:28.591Z,121.78
2022-12-05T23:48:56.131Z,101.47
2022-12-05T23:51:28.379Z,106.72
2022-12-05T23:54:00.981Z,106.97
2022-12-05T23:56:31.612Z,118.55
2022-12-05T23:58:58.669Z,119.15
